Terminal Aerodrome Forecast
Issued by NWS

Home | Current Version | Previous Version | Graphics & Text | Print | Product List | Glossary On
Versions: 1 2 3 4 5 6 7 8 9 10 11 12 13 14 15 16 17 18 19 20 21 22 23 24 25 26 27 28 29 30 31
000
FTUS43 KLOT 301625 AAC
TAFORD
TAF AMD
KORD 301625Z 3016/0118 01014G20KT P6SM BKN035 OVC060
     FM301700 02016G23KT P6SM BKN025 BKN050
     FM010100 01010KT P6SM FEW060
     FM010700 33004KT P6SM SCT250
     FM011500 03007KT P6SM SCT050 SCT250=

USA.gov is the U.S. government's official web portal to all federal, state and local government web resources and services.